sensor_id;sensor_type;location;lat;lon;timestamp;temperature;humidity
23371;DHT22;11858;51.056;3.712;2023-02-21T00:01:35;8.70;99.90
23371;DHT22;11858;51.056;3.712;2023-02-21T00:04:19;8.80;99.90
23371;DHT22;11858;51.056;3.712;2023-02-21T00:07:04;8.70;99.90
23371;DHT22;11858;51.056;3.712;2023-02-21T00:09:48;8.90;99.90
23371;DHT22;11858;51.056;3.712;2023-02-21T00:12:32;8.90;99.90
23371;DHT22;11858;51.056;3.712;2023-02-21T00:15:16;8.90;99.90
23371;DHT22;11858;51.056;3.712;2023-02-21T00:18:00;8.80;99.90
23371;DHT22;11858;51.056;3.712;2023-02-21T00:20:44;8.80;99.90
23371;DHT22;11858;51.056;3.712;2023-02-21T00:23:35;8.80;99.90
23371;DHT22;11858;51.056;3.712;2023-02-21T00:26:20;8.70;99.90
23371;DHT22;11858;51.056;3.712;2023-02-21T00:29:05;8.80;99.90
23371;DHT22;11858;51.056;3.712;2023-02-21T00:31:49;8.80;99.90
23371;DHT22;11858;51.056;3.712;2023-02-21T00:34:34;8.80;99.90
23371;DHT22;11858;51.056;3.712;2023-02-21T00:37:18;8.80;99.90
23371;DHT22;11858;51.056;3.712;2023-02-21T00:40:02;9.00;99.90
23371;DHT22;11858;51.056;3.712;2023-02-21T00:42:47;8.90;99.90
23371;DHT22;11858;51.056;3.712;2023-02-21T00:45:31;8.80;99.90
23371;DHT22;11858;51.056;3.712;2023-02-21T00:48:22;8.80;99.90
23371;DHT22;11858;51.056;3.712;2023-02-21T00:51:06;8.80;99.90
23371;DHT22;11858;51.056;3.712;2023-02-21T00:53:51;8.80;99.90
23371;DHT22;11858;51.056;3.712;2023-02-21T00:56:35;8.80;99.90
23371;DHT22;11858;51.056;3.712;2023-02-21T00:59:19;8.90;99.90
23371;DHT22;11858;51.056;3.712;2023-02-21T01:02:03;8.80;99.90
23371;DHT22;11858;51.056;3.712;2023-02-21T01:04:48;8.70;99.90
23371;DHT22;11858;51.056;3.712;2023-02-21T01:07:32;8.70;99.90
23371;DHT22;11858;51.056;3.712;2023-02-21T01:10:17;8.70;99.90
23371;DHT22;11858;51.056;3.712;2023-02-21T01:13:02;8.80;99.90
23371;DHT22;11858;51.056;3.712;2023-02-21T01:15:46;8.90;99.90
23371;DHT22;11858;51.056;3.712;2023-02-21T01:18:31;8.80;99.90
23371;DHT22;11858;51.056;3.712;2023-02-21T01:21:16;8.70;99.90
23371;DHT22;11858;51.056;3.712;2023-02-21T01:24:01;8.60;99.90
23371;DHT22;11858;51.056;3.712;2023-02-21T01:26:46;8.60;99.90
23371;DHT22;11858;51.056;3.712;2023-02-21T01:29:30;8.80;99.90
23371;DHT22;11858;51.056;3.712;2023-02-21T01:32:15;8.80;99.90
23371;DHT22;11858;51.056;3.712;2023-02-21T01:34:59;8.60;99.90
23371;DHT22;11858;51.056;3.712;2023-02-21T01:37:43;8.50;99.90
23371;DHT22;11858;51.056;3.712;2023-02-21T01:40:27;8.60;99.90
23371;DHT22;11858;51.056;3.712;2023-02-21T01:43:20;8.60;99.90
23371;DHT22;11858;51.056;3.712;2023-02-21T01:46:07;8.60;99.90
23371;DHT22;11858;51.056;3.712;2023-02-21T01:48:54;8.60;99.90
23371;DHT22;11858;51.056;3.712;2023-02-21T01:51:40;8.60;99.90
23371;DHT22;11858;51.056;3.712;2023-02-21T01:54:27;8.60;99.90
23371;DHT22;11858;51.056;3.712;2023-02-21T01:57:13;8.60;99.90
23371;DHT22;11858;51.056;3.712;2023-02-21T01:59:59;8.50;99.90
23371;DHT22;11858;51.056;3.712;2023-02-21T02:02:59;8.40;99.90
23371;DHT22;11858;51.056;3.712;2023-02-21T02:05:48;8.40;99.90
23371;DHT22;11858;51.056;3.712;2023-02-21T02:08:33;8.40;99.90
23371;DHT22;11858;51.056;3.712;2023-02-21T02:11:50;8.40;99.90
23371;DHT22;11858;51.056;3.712;2023-02-21T02:45:39;8.40;99.90
23371;DHT22;11858;51.056;3.712;2023-02-21T02:48:19;8.40;99.90
23371;DHT22;11858;51.056;3.712;2023-02-21T02:50:47;8.40;99.90
23371;DHT22;11858;51.056;3.712;2023-02-21T02:53:16;8.40;99.90
23371;DHT22;11858;51.056;3.712;2023-02-21T02:55:50;8.40;99.90
23371;DHT22;11858;51.056;3.712;2023-02-21T02:58:19;8.40;99.90
23371;DHT22;11858;51.056;3.712;2023-02-21T03:09:30;8.40;99.90
23371;DHT22;11858;51.056;3.712;2023-02-21T03:12:08;8.30;99.90
23371;DHT22;11858;51.056;3.712;2023-02-21T03:14:43;8.40;99.90
23371;DHT22;11858;51.056;3.712;2023-02-21T03:17:13;8.50;99.90
23371;DHT22;11858;51.056;3.712;2023-02-21T03:19:41;8.40;99.90
23371;DHT22;11858;51.056;3.712;2023-02-21T03:22:17;8.40;99.90
23371;DHT22;11858;51.056;3.712;2023-02-21T03:24:46;8.40;99.90
23371;DHT22;11858;51.056;3.712;2023-02-21T03:27:13;8.40;99.90
23371;DHT22;11858;51.056;3.712;2023-02-21T03:29:40;8.30;99.90
23371;DHT22;11858;51.056;3.712;2023-02-21T03:32:16;8.50;99.90
23371;DHT22;11858;51.056;3.712;2023-02-21T03:34:43;8.40;99.90
23371;DHT22;11858;51.056;3.712;2023-02-21T03:37:39;8.50;99.90
23371;DHT22;11858;51.056;3.712;2023-02-21T03:40:24;8.50;99.90
23371;DHT22;11858;51.056;3.712;2023-02-21T03:42:51;8.50;99.90
23371;DHT22;11858;51.056;3.712;2023-02-21T03:45:17;8.50;99.90
23371;DHT22;11858;51.056;3.712;2023-02-21T03:47:43;8.40;99.90
23371;DHT22;11858;51.056;3.712;2023-02-21T03:50:08;8.40;99.90
23371;DHT22;11858;51.056;3.712;2023-02-21T03:52:34;8.30;99.90
23371;DHT22;11858;51.056;3.712;2023-02-21T03:55:00;8.30;99.90
23371;DHT22;11858;51.056;3.712;2023-02-21T03:57:26;8.40;99.90
23371;DHT22;11858;51.056;3.712;2023-02-21T03:59:52;8.50;99.90
23371;DHT22;11858;51.056;3.712;2023-02-21T04:02:17;8.50;99.90
23371;DHT22;11858;51.056;3.712;2023-02-21T04:04:44;8.40;99.90
23371;DHT22;11858;51.056;3.712;2023-02-21T04:07:13;8.50;99.90
23371;DHT22;11858;51.056;3.712;2023-02-21T04:09:39;8.40;99.90
23371;DHT22;11858;51.056;3.712;2023-02-21T04:12:05;8.50;99.90
23371;DHT22;11858;51.056;3.712;2023-02-21T04:14:30;8.60;99.90
23371;DHT22;11858;51.056;3.712;2023-02-21T04:16:56;8.50;99.90
23371;DHT22;11858;51.056;3.712;2023-02-21T04:19:22;8.60;99.90
23371;DHT22;11858;51.056;3.712;2023-02-21T04:21:47;8.80;99.90
23371;DHT22;11858;51.056;3.712;2023-02-21T04:24:13;8.80;99.90
23371;DHT22;11858;51.056;3.712;2023-02-21T04:26:39;8.70;99.90
23371;DHT22;11858;51.056;3.712;2023-02-21T04:29:05;8.60;99.90
23371;DHT22;11858;51.056;3.712;2023-02-21T04:31:31;8.60;99.90
23371;DHT22;11858;51.056;3.712;2023-02-21T04:33:58;8.50;99.90
23371;DHT22;11858;51.056;3.712;2023-02-21T04:36:24;8.50;99.90
23371;DHT22;11858;51.056;3.712;2023-02-21T04:38:50;8.60;99.90
23371;DHT22;11858;51.056;3.712;2023-02-21T04:41:16;8.70;99.90
23371;DHT22;11858;51.056;3.712;2023-02-21T04:43:43;8.60;99.90
23371;DHT22;11858;51.056;3.712;2023-02-21T04:46:09;8.50;99.90
23371;DHT22;11858;51.056;3.712;2023-02-21T04:48:35;8.60;99.90
23371;DHT22;11858;51.056;3.712;2023-02-21T04:51:01;8.60;99.90
23371;DHT22;11858;51.056;3.712;2023-02-21T04:53:27;8.70;99.90
23371;DHT22;11858;51.056;3.712;2023-02-21T04:55:52;8.80;99.90
23371;DHT22;11858;51.056;3.712;2023-02-21T04:58:18;8.60;99.90
23371;DHT22;11858;51.056;3.712;2023-02-21T05:00:44;8.90;99.90
23371;DHT22;11858;51.056;3.712;2023-02-21T05:03:10;8.70;99.90
23371;DHT22;11858;51.056;3.712;2023-02-21T05:05:35;8.50;99.90
23371;DHT22;11858;51.056;3.712;2023-02-21T05:08:01;8.50;99.90
23371;DHT22;11858;51.056;3.712;2023-02-21T05:10:27;8.40;99.90
23371;DHT22;11858;51.056;3.712;2023-02-21T05:12:53;8.50;99.90
23371;DHT22;11858;51.056;3.712;2023-02-21T05:15:18;8.50;99.90
23371;DHT22;11858;51.056;3.712;2023-02-21T05:17:44;8.60;99.90
23371;DHT22;11858;51.056;3.712;2023-02-21T05:20:10;8.60;99.90
23371;DHT22;11858;51.056;3.712;2023-02-21T05:22:40;8.60;99.90
23371;DHT22;11858;51.056;3.712;2023-02-21T05:25:17;8.70;99.90
23371;DHT22;11858;51.056;3.712;2023-02-21T05:27:44;8.70;99.90
23371;DHT22;11858;51.056;3.712;2023-02-21T05:30:12;8.50;99.90
23371;DHT22;11858;51.056;3.712;2023-02-21T05:32:38;8.40;99.90
23371;DHT22;11858;51.056;3.712;2023-02-21T05:35:04;8.30;99.90
23371;DHT22;11858;51.056;3.712;2023-02-21T05:37:30;8.40;99.90
23371;DHT22;11858;51.056;3.712;2023-02-21T05:39:56;8.50;99.90
23371;DHT22;11858;51.056;3.712;2023-02-21T05:42:22;8.40;99.90
23371;DHT22;11858;51.056;3.712;2023-02-21T05:44:48;8.30;99.90
23371;DHT22;11858;51.056;3.712;2023-02-21T05:47:14;8.30;99.90
23371;DHT22;11858;51.056;3.712;2023-02-21T05:49:40;8.30;99.90
23371;DHT22;11858;51.056;3.712;2023-02-21T05:52:09;8.30;99.90
23371;DHT22;11858;51.056;3.712;2023-02-21T05:54:35;8.30;99.90
23371;DHT22;11858;51.056;3.712;2023-02-21T05:57:01;8.20;99.90
23371;DHT22;11858;51.056;3.712;2023-02-21T05:59:27;8.20;99.90
23371;DHT22;11858;51.056;3.712;2023-02-21T06:01:52;8.20;99.90
23371;DHT22;11858;51.056;3.712;2023-02-21T06:04:18;8.30;99.90
23371;DHT22;11858;51.056;3.712;2023-02-21T06:06:44;8.30;99.90
23371;DHT22;11858;51.056;3.712;2023-02-21T06:09:10;8.30;99.90
23371;DHT22;11858;51.056;3.712;2023-02-21T06:11:37;8.40;99.90
23371;DHT22;11858;51.056;3.712;2023-02-21T06:14:13;8.70;99.90
23371;DHT22;11858;51.056;3.712;2023-02-21T06:16:39;8.70;99.90
23371;DHT22;11858;51.056;3.712;2023-02-21T06:19:06;8.70;99.90
23371;DHT22;11858;51.056;3.712;2023-02-21T06:21:33;8.60;99.90
23371;DHT22;11858;51.056;3.712;2023-02-21T06:24:00;8.60;99.90
23371;DHT22;11858;51.056;3.712;2023-02-21T06:26:27;8.60;99.90
23371;DHT22;11858;51.056;3.712;2023-02-21T06:28:52;8.30;99.90
23371;DHT22;11858;51.056;3.712;2023-02-21T06:31:19;8.30;99.90
23371;DHT22;11858;51.056;3.712;2023-02-21T06:33:46;8.30;99.90
23371;DHT22;11858;51.056;3.712;2023-02-21T06:36:20;8.30;99.90
23371;DHT22;11858;51.056;3.712;2023-02-21T06:38:51;8.30;99.90
23371;DHT22;11858;51.056;3.712;2023-02-21T06:41:19;8.30;99.90
23371;DHT22;11858;51.056;3.712;2023-02-21T06:43:45;8.40;99.90
23371;DHT22;11858;51.056;3.712;2023-02-21T06:46:16;8.30;99.90
23371;DHT22;11858;51.056;3.712;2023-02-21T06:48:41;8.30;99.90
23371;DHT22;11858;51.056;3.712;2023-02-21T06:51:07;8.30;99.90
23371;DHT22;11858;51.056;3.712;2023-02-21T06:53:36;8.40;99.90
23371;DHT22;11858;51.056;3.712;2023-02-21T06:56:03;8.60;99.90
23371;DHT22;11858;51.056;3.712;2023-02-21T06:58:28;8.50;99.90
23371;DHT22;11858;51.056;3.712;2023-02-21T07:00:54;8.60;99.90
23371;DHT22;11858;51.056;3.712;2023-02-21T07:03:20;8.60;99.90
23371;DHT22;11858;51.056;3.712;2023-02-21T07:05:46;8.40;99.90
23371;DHT22;11858;51.056;3.712;2023-02-21T07:08:12;8.50;99.90
23371;DHT22;11858;51.056;3.712;2023-02-21T07:10:37;8.50;99.90
23371;DHT22;11858;51.056;3.712;2023-02-21T07:13:03;8.60;99.90
23371;DHT22;11858;51.056;3.712;2023-02-21T07:15:29;8.70;99.90
23371;DHT22;11858;51.056;3.712;2023-02-21T07:17:55;8.60;99.90
23371;DHT22;11858;51.056;3.712;2023-02-21T07:20:21;8.50;99.90
23371;DHT22;11858;51.056;3.712;2023-02-21T07:22:46;8.50;99.90
23371;DHT22;11858;51.056;3.712;2023-02-21T07:25:15;8.40;99.90
23371;DHT22;11858;51.056;3.712;2023-02-21T07:27:41;8.50;99.90
23371;DHT22;11858;51.056;3.712;2023-02-21T07:30:08;8.40;99.90
23371;DHT22;11858;51.056;3.712;2023-02-21T07:32:34;8.50;99.90
23371;DHT22;11858;51.056;3.712;2023-02-21T07:35:00;8.50;99.90
23371;DHT22;11858;51.056;3.712;2023-02-21T07:37:25;8.50;99.90
23371;DHT22;11858;51.056;3.712;2023-02-21T07:39:52;8.40;99.90
23371;DHT22;11858;51.056;3.712;2023-02-21T07:42:18;8.40;99.90
23371;DHT22;11858;51.056;3.712;2023-02-21T07:44:43;8.50;99.90
23371;DHT22;11858;51.056;3.712;2023-02-21T07:47:09;8.50;99.90
23371;DHT22;11858;51.056;3.712;2023-02-21T07:49:38;8.40;99.90
23371;DHT22;11858;51.056;3.712;2023-02-21T07:52:05;8.50;99.90
23371;DHT22;11858;51.056;3.712;2023-02-21T07:54:31;8.60;99.90
23371;DHT22;11858;51.056;3.712;2023-02-21T07:56:57;8.50;99.90
23371;DHT22;11858;51.056;3.712;2023-02-21T07:59:23;8.50;99.90
23371;DHT22;11858;51.056;3.712;2023-02-21T08:01:48;8.40;99.90
23371;DHT22;11858;51.056;3.712;2023-02-21T08:04:15;8.30;99.90
23371;DHT22;11858;51.056;3.712;2023-02-21T08:06:46;8.30;99.90
23371;DHT22;11858;51.056;3.712;2023-02-21T08:09:12;8.50;99.90
23371;DHT22;11858;51.056;3.712;2023-02-21T08:11:38;8.40;99.90
23371;DHT22;11858;51.056;3.712;2023-02-21T08:14:05;8.50;99.90
23371;DHT22;11858;51.056;3.712;2023-02-21T08:16:31;8.60;99.90
23371;DHT22;11858;51.056;3.712;2023-02-21T08:18:57;8.70;99.90
23371;DHT22;11858;51.056;3.712;2023-02-21T08:21:23;8.70;99.90
23371;DHT22;11858;51.056;3.712;2023-02-21T08:23:52;8.60;99.90
23371;DHT22;11858;51.056;3.712;2023-02-21T08:26:19;8.70;99.90
23371;DHT22;11858;51.056;3.712;2023-02-21T08:28:45;8.60;99.90
23371;DHT22;11858;51.056;3.712;2023-02-21T08:31:11;8.60;99.90
23371;DHT22;11858;51.056;3.712;2023-02-21T08:33:37;8.60;99.90
23371;DHT22;11858;51.056;3.712;2023-02-21T08:36:03;8.60;99.90
23371;DHT22;11858;51.056;3.712;2023-02-21T08:38:29;8.70;99.90
23371;DHT22;11858;51.056;3.712;2023-02-21T08:40:55;8.70;99.90
23371;DHT22;11858;51.056;3.712;2023-02-21T08:43:23;8.60;99.90
23371;DHT22;11858;51.056;3.712;2023-02-21T08:45:49;8.60;99.90
23371;DHT22;11858;51.056;3.712;2023-02-21T08:48:14;8.70;99.90
23371;DHT22;11858;51.056;3.712;2023-02-21T08:50:40;8.80;99.90
23371;DHT22;11858;51.056;3.712;2023-02-21T08:53:06;8.80;99.90
23371;DHT22;11858;51.056;3.712;2023-02-21T08:55:32;8.80;99.90
23371;DHT22;11858;51.056;3.712;2023-02-21T08:57:58;9.00;99.90
23371;DHT22;11858;51.056;3.712;2023-02-21T09:00:24;8.80;99.90
23371;DHT22;11858;51.056;3.712;2023-02-21T09:02:54;8.80;99.90
23371;DHT22;11858;51.056;3.712;2023-02-21T09:05:26;8.90;99.90
23371;DHT22;11858;51.056;3.712;2023-02-21T09:07:53;8.80;99.90
23371;DHT22;11858;51.056;3.712;2023-02-21T09:10:28;8.80;99.90
23371;DHT22;11858;51.056;3.712;2023-02-21T09:12:53;8.70;99.90
23371;DHT22;11858;51.056;3.712;2023-02-21T09:15:19;8.60;99.90
23371;DHT22;11858;51.056;3.712;2023-02-21T09:17:46;8.70;99.90
23371;DHT22;11858;51.056;3.712;2023-02-21T09:20:17;8.70;99.90
23371;DHT22;11858;51.056;3.712;2023-02-21T09:22:44;8.70;99.90
23371;DHT22;11858;51.056;3.712;2023-02-21T09:25:11;8.70;99.90
23371;DHT22;11858;51.056;3.712;2023-02-21T09:27:38;8.70;99.90
23371;DHT22;11858;51.056;3.712;2023-02-21T09:30:13;8.90;99.90
23371;DHT22;11858;51.056;3.712;2023-02-21T09:32:39;9.00;99.90
23371;DHT22;11858;51.056;3.712;2023-02-21T09:35:06;9.10;99.90
23371;DHT22;11858;51.056;3.712;2023-02-21T09:37:35;9.00;99.90
23371;DHT22;11858;51.056;3.712;2023-02-21T09:40:01;8.90;99.90
23371;DHT22;11858;51.056;3.712;2023-02-21T09:42:30;8.90;99.90
23371;DHT22;11858;51.056;3.712;2023-02-21T09:44:56;9.00;99.90
23371;DHT22;11858;51.056;3.712;2023-02-21T09:47:32;9.00;99.90
23371;DHT22;11858;51.056;3.712;2023-02-21T09:50:04;8.90;99.90
23371;DHT22;11858;51.056;3.712;2023-02-21T09:52:33;8.90;99.90
23371;DHT22;11858;51.056;3.712;2023-02-21T09:57:37;9.10;99.90
23371;DHT22;11858;51.056;3.712;2023-02-21T10:00:15;9.10;99.90
23371;DHT22;11858;51.056;3.712;2023-02-21T10:02:53;9.10;99.90
23371;DHT22;11858;51.056;3.712;2023-02-21T10:05:45;9.10;99.90
23371;DHT22;11858;51.056;3.712;2023-02-21T10:15:47;9.20;99.90
23371;DHT22;11858;51.056;3.712;2023-02-21T10:18:51;9.20;99.90
23371;DHT22;11858;51.056;3.712;2023-02-21T10:21:34;9.20;99.90
23371;DHT22;11858;51.056;3.712;2023-02-21T10:24:08;9.30;99.90
23371;DHT22;11858;51.056;3.712;2023-02-21T10:26:37;9.30;99.90
23371;DHT22;11858;51.056;3.712;2023-02-21T10:29:27;9.30;99.90
23371;DHT22;11858;51.056;3.712;2023-02-21T10:31:59;9.20;99.90
23371;DHT22;11858;51.056;3.712;2023-02-21T10:34:29;9.30;99.90
23371;DHT22;11858;51.056;3.712;2023-02-21T10:37:02;9.40;99.90
23371;DHT22;11858;51.056;3.712;2023-02-21T10:39:42;9.70;99.90
23371;DHT22;11858;51.056;3.712;2023-02-21T10:42:22;9.60;99.90
23371;DHT22;11858;51.056;3.712;2023-02-21T10:44:52;9.60;99.90
23371;DHT22;11858;51.056;3.712;2023-02-21T10:47:22;9.60;99.90
23371;DHT22;11858;51.056;3.712;2023-02-21T10:50:02;9.60;99.90
23371;DHT22;11858;51.056;3.712;2023-02-21T10:52:36;9.60;99.90
23371;DHT22;11858;51.056;3.712;2023-02-21T10:55:05;9.60;99.90
23371;DHT22;11858;51.056;3.712;2023-02-21T10:57:39;9.50;99.90
23371;DHT22;11858;51.056;3.712;2023-02-21T11:00:06;9.60;99.90
23371;DHT22;11858;51.056;3.712;2023-02-21T11:02:39;9.60;99.90
23371;DHT22;11858;51.056;3.712;2023-02-21T11:05:14;9.90;99.90
23371;DHT22;11858;51.056;3.712;2023-02-21T11:07:58;9.80;99.90
23371;DHT22;11858;51.056;3.712;2023-02-21T11:10:43;9.70;99.90
23371;DHT22;11858;51.056;3.712;2023-02-21T11:13:22;9.80;99.90
23371;DHT22;11858;51.056;3.712;2023-02-21T11:15:48;9.70;99.90
23371;DHT22;11858;51.056;3.712;2023-02-21T11:18:31;9.70;99.90
23371;DHT22;11858;51.056;3.712;2023-02-21T11:21:16;9.90;99.90
23371;DHT22;11858;51.056;3.712;2023-02-21T11:23:55;9.70;99.90
23371;DHT22;11858;51.056;3.712;2023-02-21T11:26:35;9.90;99.90
23371;DHT22;11858;51.056;3.712;2023-02-21T11:29:17;10.10;99.90
23371;DHT22;11858;51.056;3.712;2023-02-21T11:31:45;10.00;99.90
23371;DHT22;11858;51.056;3.712;2023-02-21T11:34:13;10.00;99.90
23371;DHT22;11858;51.056;3.712;2023-02-21T11:36:41;10.10;99.90
23371;DHT22;11858;51.056;3.712;2023-02-21T11:39:16;9.90;99.90
23371;DHT22;11858;51.056;3.712;2023-02-21T11:41:54;9.60;99.90
23371;DHT22;11858;51.056;3.712;2023-02-21T11:44:24;9.70;99.90
23371;DHT22;11858;51.056;3.712;2023-02-21T11:47:00;9.80;99.90
23371;DHT22;11858;51.056;3.712;2023-02-21T11:49:50;9.70;99.90
23371;DHT22;11858;51.056;3.712;2023-02-21T11:52:25;9.80;99.90
23371;DHT22;11858;51.056;3.712;2023-02-21T11:54:53;10.00;99.90
23371;DHT22;11858;51.056;3.712;2023-02-21T11:57:28;10.10;99.90
23371;DHT22;11858;51.056;3.712;2023-02-21T12:14:06;10.30;99.90
23371;DHT22;11858;51.056;3.712;2023-02-21T12:17:10;10.20;99.90
23371;DHT22;11858;51.056;3.712;2023-02-21T12:25:20;10.50;99.90
23371;DHT22;11858;51.056;3.712;2023-02-21T12:28:21;10.70;99.90
23371;DHT22;11858;51.056;3.712;2023-02-21T12:31:04;10.60;99.90
23371;DHT22;11858;51.056;3.712;2023-02-21T12:39:32;10.60;99.90
23371;DHT22;11858;51.056;3.712;2023-02-21T12:50:19;10.60;99.90
23371;DHT22;11858;51.056;3.712;2023-02-21T12:53:07;10.60;99.90
23371;DHT22;11858;51.056;3.712;2023-02-21T12:55:45;10.60;99.90
23371;DHT22;11858;51.056;3.712;2023-02-21T12:58:39;10.70;99.90
23371;DHT22;11858;51.056;3.712;2023-02-21T13:01:30;10.70;99.90
23371;DHT22;11858;51.056;3.712;2023-02-21T13:06:58;10.80;99.90
23371;DHT22;11858;51.056;3.712;2023-02-21T13:09:36;10.60;99.90
23371;DHT22;11858;51.056;3.712;2023-02-21T13:12:09;10.60;99.90
23371;DHT22;11858;51.056;3.712;2023-02-21T13:17:11;10.80;99.90
23371;DHT22;11858;51.056;3.712;2023-02-21T13:20:02;10.80;99.90
23371;DHT22;11858;51.056;3.712;2023-02-21T13:22:33;10.80;99.90
23371;DHT22;11858;51.056;3.712;2023-02-21T13:25:27;10.70;99.90
23371;DHT22;11858;51.056;3.712;2023-02-21T13:28:02;10.80;99.90
23371;DHT22;11858;51.056;3.712;2023-02-21T13:32:58;10.80;99.90
23371;DHT22;11858;51.056;3.712;2023-02-21T13:35:30;10.90;99.90
23371;DHT22;11858;51.056;3.712;2023-02-21T13:37:57;11.20;99.90
23371;DHT22;11858;51.056;3.712;2023-02-21T13:43:26;11.20;99.90
23371;DHT22;11858;51.056;3.712;2023-02-21T13:45:54;11.40;99.90
23371;DHT22;11858;51.056;3.712;2023-02-21T13:48:24;11.00;99.90
23371;DHT22;11858;51.056;3.712;2023-02-21T13:50:53;11.10;99.90
23371;DHT22;11858;51.056;3.712;2023-02-21T13:58:47;11.10;99.90
23371;DHT22;11858;51.056;3.712;2023-02-21T14:03:47;11.20;99.90
23371;DHT22;11858;51.056;3.712;2023-02-21T14:06:36;11.10;99.90
23371;DHT22;11858;51.056;3.712;2023-02-21T14:09:12;11.10;99.90
23371;DHT22;11858;51.056;3.712;2023-02-21T14:11:48;11.00;99.90
23371;DHT22;11858;51.056;3.712;2023-02-21T14:14:28;11.20;99.90
23371;DHT22;11858;51.056;3.712;2023-02-21T14:17:07;11.00;99.90
23371;DHT22;11858;51.056;3.712;2023-02-21T14:19:47;10.90;99.90
23371;DHT22;11858;51.056;3.712;2023-02-21T14:22:16;10.70;99.90
23371;DHT22;11858;51.056;3.712;2023-02-21T14:24:48;10.70;99.90
23371;DHT22;11858;51.056;3.712;2023-02-21T14:29:44;10.60;99.90
23371;DHT22;11858;51.056;3.712;2023-02-21T14:54:08;10.50;99.90
23371;DHT22;11858;51.056;3.712;2023-02-21T15:02:06;10.20;99.90
23371;DHT22;11858;51.056;3.712;2023-02-21T15:10:55;10.10;99.90
23371;DHT22;11858;51.056;3.712;2023-02-21T15:13:30;10.10;99.90
23371;DHT22;11858;51.056;3.712;2023-02-21T15:16:02;10.00;99.90
23371;DHT22;11858;51.056;3.712;2023-02-21T15:18:30;10.10;99.90
23371;DHT22;11858;51.056;3.712;2023-02-21T15:21:07;10.00;99.90
23371;DHT22;11858;51.056;3.712;2023-02-21T15:23:33;9.90;99.90
23371;DHT22;11858;51.056;3.712;2023-02-21T15:26:15;9.80;99.90
23371;DHT22;11858;51.056;3.712;2023-02-21T15:28:42;10.00;99.90
23371;DHT22;11858;51.056;3.712;2023-02-21T15:31:09;10.10;99.90
23371;DHT22;11858;51.056;3.712;2023-02-21T15:33:39;10.00;99.90
23371;DHT22;11858;51.056;3.712;2023-02-21T15:36:19;9.80;99.90
23371;DHT22;11858;51.056;3.712;2023-02-21T15:38:50;9.80;99.90
23371;DHT22;11858;51.056;3.712;2023-02-21T15:41:27;9.80;99.90
23371;DHT22;11858;51.056;3.712;2023-02-21T15:44:20;9.90;99.90
23371;DHT22;11858;51.056;3.712;2023-02-21T15:47:23;9.90;99.90
23371;DHT22;11858;51.056;3.712;2023-02-21T15:50:03;9.90;99.90
23371;DHT22;11858;51.056;3.712;2023-02-21T15:52:39;10.00;99.90
23371;DHT22;11858;51.056;3.712;2023-02-21T15:55:35;9.80;99.90
23371;DHT22;11858;51.056;3.712;2023-02-21T16:00:34;9.70;99.90
23371;DHT22;11858;51.056;3.712;2023-02-21T16:03:39;9.60;99.90
23371;DHT22;11858;51.056;3.712;2023-02-21T16:06:19;9.50;99.90
23371;DHT22;11858;51.056;3.712;2023-02-21T16:09:06;9.30;99.90
23371;DHT22;11858;51.056;3.712;2023-02-21T16:17:37;9.60;99.90
23371;DHT22;11858;51.056;3.712;2023-02-21T16:20:14;9.50;99.90
23371;DHT22;11858;51.056;3.712;2023-02-21T16:22:41;9.50;99.90
23371;DHT22;11858;51.056;3.712;2023-02-21T16:28:00;9.50;99.90
23371;DHT22;11858;51.056;3.712;2023-02-21T16:30:30;9.50;99.90
23371;DHT22;11858;51.056;3.712;2023-02-21T16:33:02;9.40;99.90
23371;DHT22;11858;51.056;3.712;2023-02-21T16:35:28;9.40;99.90
23371;DHT22;11858;51.056;3.712;2023-02-21T16:37:56;9.20;99.90
23371;DHT22;11858;51.056;3.712;2023-02-21T16:40:25;9.30;99.90
23371;DHT22;11858;51.056;3.712;2023-02-21T16:42:52;9.40;99.90
23371;DHT22;11858;51.056;3.712;2023-02-21T16:45:19;9.50;99.90
23371;DHT22;11858;51.056;3.712;2023-02-21T16:47:47;9.60;99.90
23371;DHT22;11858;51.056;3.712;2023-02-21T16:50:21;9.40;99.90
23371;DHT22;11858;51.056;3.712;2023-02-21T16:52:47;9.10;99.90
23371;DHT22;11858;51.056;3.712;2023-02-21T16:55:14;9.00;99.90
23371;DHT22;11858;51.056;3.712;2023-02-21T16:57:41;8.90;99.90
23371;DHT22;11858;51.056;3.712;2023-02-21T17:00:07;8.90;99.90
23371;DHT22;11858;51.056;3.712;2023-02-21T17:02:33;8.90;99.90
23371;DHT22;11858;51.056;3.712;2023-02-21T17:04:59;8.90;99.90
23371;DHT22;11858;51.056;3.712;2023-02-21T17:07:24;9.00;99.90
23371;DHT22;11858;51.056;3.712;2023-02-21T17:09:50;9.00;99.90
23371;DHT22;11858;51.056;3.712;2023-02-21T17:12:16;9.10;99.90
23371;DHT22;11858;51.056;3.712;2023-02-21T17:14:41;9.00;99.90
23371;DHT22;11858;51.056;3.712;2023-02-21T17:17:07;9.10;99.90
23371;DHT22;11858;51.056;3.712;2023-02-21T17:19:33;9.00;99.90
23371;DHT22;11858;51.056;3.712;2023-02-21T17:21:59;9.10;99.90
23371;DHT22;11858;51.056;3.712;2023-02-21T17:24:24;9.00;99.90
23371;DHT22;11858;51.056;3.712;2023-02-21T17:26:53;9.10;99.90
23371;DHT22;11858;51.056;3.712;2023-02-21T17:29:20;9.30;99.90
23371;DHT22;11858;51.056;3.712;2023-02-21T17:31:46;9.30;99.90
23371;DHT22;11858;51.056;3.712;2023-02-21T17:34:15;9.20;99.90
23371;DHT22;11858;51.056;3.712;2023-02-21T17:36:41;9.20;99.90
23371;DHT22;11858;51.056;3.712;2023-02-21T17:39:07;9.00;99.90
23371;DHT22;11858;51.056;3.712;2023-02-21T17:41:33;9.00;99.90
23371;DHT22;11858;51.056;3.712;2023-02-21T17:43:59;8.90;99.90
23371;DHT22;11858;51.056;3.712;2023-02-21T17:46:25;8.80;99.90
23371;DHT22;11858;51.056;3.712;2023-02-21T17:48:50;8.70;99.90
23371;DHT22;11858;51.056;3.712;2023-02-21T17:51:25;8.90;99.90
23371;DHT22;11858;51.056;3.712;2023-02-21T17:53:51;9.00;99.90
23371;DHT22;11858;51.056;3.712;2023-02-21T17:56:19;8.90;99.90
23371;DHT22;11858;51.056;3.712;2023-02-21T17:58:46;8.80;99.90
23371;DHT22;11858;51.056;3.712;2023-02-21T18:01:16;8.80;99.90
23371;DHT22;11858;51.056;3.712;2023-02-21T18:03:43;8.90;99.90
23371;DHT22;11858;51.056;3.712;2023-02-21T18:06:09;8.90;99.90
23371;DHT22;11858;51.056;3.712;2023-02-21T18:08:35;8.80;99.90
23371;DHT22;11858;51.056;3.712;2023-02-21T18:11:00;8.70;99.90
23371;DHT22;11858;51.056;3.712;2023-02-21T18:13:26;8.50;99.90
23371;DHT22;11858;51.056;3.712;2023-02-21T18:15:52;8.50;99.90
23371;DHT22;11858;51.056;3.712;2023-02-21T18:18:17;8.50;99.90
23371;DHT22;11858;51.056;3.712;2023-02-21T18:20:43;8.60;99.90
23371;DHT22;11858;51.056;3.712;2023-02-21T18:23:10;8.60;99.90
23371;DHT22;11858;51.056;3.712;2023-02-21T18:25:36;8.60;99.90
23371;DHT22;11858;51.056;3.712;2023-02-21T18:28:03;8.60;99.90
23371;DHT22;11858;51.056;3.712;2023-02-21T18:30:29;8.50;99.90
23371;DHT22;11858;51.056;3.712;2023-02-21T18:32:55;8.50;99.90
23371;DHT22;11858;51.056;3.712;2023-02-21T18:35:20;8.50;99.90
23371;DHT22;11858;51.056;3.712;2023-02-21T18:37:46;8.50;99.90
23371;DHT22;11858;51.056;3.712;2023-02-21T18:40:14;8.60;99.90
23371;DHT22;11858;51.056;3.712;2023-02-21T18:42:41;8.50;99.90
23371;DHT22;11858;51.056;3.712;2023-02-21T18:45:08;8.40;99.90
23371;DHT22;11858;51.056;3.712;2023-02-21T18:47:33;8.40;99.90